createdAt,value
2023-04-19T00:01:09.863Z,13.28
2023-04-19T00:03:36.626Z,13.28
2023-04-19T00:06:03.527Z,13.28
2023-04-19T00:08:30.017Z,13.28
2023-04-19T00:10:56.479Z,13.27
2023-04-19T00:13:22.959Z,13.26
2023-04-19T00:15:49.476Z,13.28
2023-04-19T00:18:15.965Z,13.29
2023-04-19T00:20:42.494Z,13.29
2023-04-19T00:23:08.939Z,13.28
2023-04-19T00:25:35.421Z,13.28
2023-04-19T00:28:01.873Z,13.26
2023-04-19T00:30:28.407Z,13.25
2023-04-19T00:32:54.968Z,13.23
2023-04-19T00:35:21.500Z,13.22
2023-04-19T00:37:48.011Z,13.19
2023-04-19T00:40:14.700Z,13.16
2023-04-19T00:42:41.226Z,13.13
2023-04-19T00:45:08.344Z,13.11
2023-04-19T00:47:35.931Z,13.08
2023-04-19T00:50:04.222Z,13.05
2023-04-19T00:52:32.576Z,13.04
2023-04-19T00:54:59.089Z,13.02
2023-04-19T00:57:25.636Z,13.01
2023-04-19T00:59:52.168Z,12.97
2023-04-19T01:02:18.688Z,12.93
2023-04-19T01:04:45.182Z,12.89
2023-04-19T01:07:11.716Z,12.86
2023-04-19T01:09:43.940Z,12.79
2023-04-19T01:12:10.430Z,12.73
2023-04-19T01:14:36.909Z,12.66
2023-04-19T01:17:03.421Z,12.60
2023-04-19T01:19:29.906Z,12.55
2023-04-19T01:21:56.382Z,12.49
2023-04-19T01:24:22.977Z,12.42
2023-04-19T01:26:49.435Z,12.37
2023-04-19T01:29:15.912Z,12.32
2023-04-19T01:31:42.491Z,12.28
2023-04-19T01:34:09.019Z,12.24
2023-04-19T01:36:35.517Z,12.21
2023-04-19T01:39:01.999Z,12.17
2023-04-19T01:41:28.460Z,12.12
2023-04-19T01:43:54.955Z,12.09
2023-04-19T01:46:21.452Z,12.06
2023-04-19T01:48:47.920Z,12.04
2023-04-19T01:51:14.393Z,12.02
2023-04-19T01:53:40.925Z,12.02
2023-04-19T01:56:07.698Z,12.02
2023-04-19T01:58:34.247Z,12.03
2023-04-19T02:01:00.759Z,12.04
2023-04-19T02:03:27.386Z,12.04
2023-04-19T02:05:54.021Z,12.05
2023-04-19T02:08:20.538Z,12.06
2023-04-19T02:10:47.036Z,12.07
2023-04-19T02:13:13.523Z,12.08
2023-04-19T02:15:39.983Z,12.07
2023-04-19T02:18:06.554Z,12.05
2023-04-19T02:20:33.504Z,12.05
2023-04-19T02:22:59.953Z,12.05
2023-04-19T02:25:26.394Z,12.06
2023-04-19T02:27:52.848Z,12.07
2023-04-19T02:30:19.398Z,12.07
2023-04-19T02:32:48.372Z,12.08
2023-04-19T02:35:14.870Z,12.08
2023-04-19T02:37:42.014Z,12.06
2023-04-19T02:40:08.970Z,12.03
2023-04-19T02:42:35.500Z,12.00
2023-04-19T02:45:01.996Z,11.98
2023-04-19T02:47:28.558Z,11.94
2023-04-19T02:49:55.022Z,11.93
2023-04-19T02:52:21.474Z,11.91
2023-04-19T02:54:48.298Z,11.90
2023-04-19T02:57:14.784Z,11.89
2023-04-19T02:59:41.226Z,11.90
2023-04-19T03:02:07.758Z,11.90
2023-04-19T03:04:34.456Z,11.89
2023-04-19T03:07:01.024Z,11.88
2023-04-19T03:09:27.564Z,11.85
2023-04-19T03:11:54.004Z,11.84
2023-04-19T03:14:20.509Z,11.84
2023-04-19T03:16:46.994Z,11.84
2023-04-19T03:19:13.458Z,11.81
2023-04-19T03:21:39.947Z,11.80
2023-04-19T03:24:06.615Z,11.78
2023-04-19T03:26:33.088Z,11.75
2023-04-19T03:28:59.556Z,11.74
2023-04-19T03:31:26.087Z,11.70
2023-04-19T03:33:52.612Z,11.68
2023-04-19T03:36:19.147Z,11.64
2023-04-19T03:38:45.628Z,11.59
2023-04-19T03:41:22.918Z,11.55
2023-04-19T03:43:49.576Z,11.50
2023-04-19T03:46:16.070Z,11.44
2023-04-19T03:48:42.577Z,11.40
2023-04-19T03:51:09.177Z,11.38
2023-04-19T03:53:36.722Z,11.35
2023-04-19T03:56:03.389Z,11.31
2023-04-19T03:58:29.870Z,11.27
2023-04-19T04:00:56.359Z,11.22
2023-04-19T04:03:23.090Z,11.17
2023-04-19T04:05:49.771Z,11.15
2023-04-19T04:08:16.436Z,11.12
2023-04-19T04:10:42.915Z,11.09
2023-04-19T04:13:09.479Z,11.06
2023-04-19T04:15:35.997Z,11.04
2023-04-19T04:18:02.598Z,11.01
2023-04-19T04:20:29.164Z,10.99
2023-04-19T04:22:55.616Z,10.99
2023-04-19T04:25:23.223Z,10.99
2023-04-19T04:27:52.915Z,11.01
2023-04-19T04:30:19.515Z,11.02
2023-04-19T04:32:46.259Z,11.04
2023-04-19T04:35:13.227Z,11.05
2023-04-19T04:37:39.677Z,11.08
2023-04-19T04:40:06.848Z,11.12
2023-04-19T04:42:33.355Z,11.14
2023-04-19T04:45:00.184Z,11.15
2023-04-19T04:47:31.191Z,11.16
2023-04-19T04:49:57.799Z,11.19
2023-04-19T04:52:24.286Z,11.21
2023-04-19T04:54:50.768Z,11.23
2023-04-19T04:57:17.266Z,11.24
2023-04-19T04:59:43.757Z,11.27
2023-04-19T05:02:10.219Z,11.27
2023-04-19T05:04:36.736Z,11.29
2023-04-19T05:07:03.244Z,11.30
2023-04-19T05:09:29.763Z,11.31
2023-04-19T05:11:56.318Z,11.34
2023-04-19T05:14:22.834Z,11.35
2023-04-19T05:16:49.383Z,11.36
2023-04-19T05:19:15.961Z,11.38
2023-04-19T05:21:42.435Z,11.39
2023-04-19T05:24:08.977Z,11.43
2023-04-19T05:26:35.648Z,11.44
2023-04-19T05:29:02.167Z,11.47
2023-04-19T05:31:28.666Z,11.52
2023-04-19T05:33:55.213Z,11.56
2023-04-19T05:36:21.760Z,11.61
2023-04-19T05:38:48.227Z,11.67
2023-04-19T05:41:15.800Z,11.73
2023-04-19T05:43:42.267Z,11.80
2023-04-19T05:46:08.775Z,11.86
2023-04-19T05:48:35.255Z,11.95
2023-04-19T05:51:01.751Z,12.06
2023-04-19T05:53:28.205Z,12.20
2023-04-19T05:55:54.714Z,12.35
2023-04-19T05:58:21.216Z,12.44
2023-04-19T06:00:47.792Z,12.55
2023-04-19T06:03:14.490Z,12.65
2023-04-19T06:05:41.349Z,12.76
2023-04-19T06:08:07.942Z,12.89
2023-04-19T06:10:51.384Z,13.00
2023-04-19T06:13:20.901Z,13.11
2023-04-19T06:15:48.122Z,13.21
2023-04-19T06:18:19.006Z,13.32
2023-04-19T06:20:46.454Z,13.44
2023-04-19T06:23:12.929Z,13.53
2023-04-19T06:25:39.387Z,13.62
2023-04-19T06:28:05.919Z,13.74
2023-04-19T06:30:32.412Z,13.85
2023-04-19T06:32:58.921Z,13.95
2023-04-19T06:35:25.581Z,14.01
2023-04-19T06:37:52.174Z,14.08
2023-04-19T06:40:18.955Z,14.18
2023-04-19T06:42:45.421Z,14.29
2023-04-19T06:45:11.989Z,14.38
2023-04-19T06:47:38.668Z,14.46
2023-04-19T06:50:05.789Z,14.57
2023-04-19T06:52:32.281Z,14.67
2023-04-19T06:54:58.773Z,14.72
2023-04-19T06:57:25.234Z,14.74
2023-04-19T06:59:51.963Z,14.77
2023-04-19T07:02:18.553Z,14.79
2023-04-19T07:04:45.352Z,14.81
2023-04-19T07:07:12.067Z,14.86
2023-04-19T07:09:38.539Z,14.89
2023-04-19T07:12:06.274Z,14.95
2023-04-19T07:14:32.747Z,15.02
2023-04-19T07:16:59.342Z,15.07
2023-04-19T07:19:25.905Z,15.11
2023-04-19T07:21:52.349Z,15.17
2023-04-19T07:24:18.852Z,15.25
2023-04-19T07:26:45.389Z,15.36
2023-04-19T07:29:14.053Z,15.51
2023-04-19T07:31:40.562Z,15.70
2023-04-19T07:34:07.131Z,15.84
2023-04-19T07:36:33.616Z,16.01
2023-04-19T07:39:00.083Z,16.19
2023-04-19T07:41:26.574Z,16.28
2023-04-19T07:43:53.078Z,16.38
2023-04-19T07:46:19.648Z,16.47
2023-04-19T07:48:46.171Z,16.57
2023-04-19T07:51:16.325Z,16.68
2023-04-19T07:53:46.216Z,16.81
2023-04-19T07:56:13.142Z,16.92
2023-04-19T07:58:40.140Z,17.02
2023-04-19T08:01:06.921Z,17.10
2023-04-19T08:03:34.958Z,17.21
2023-04-19T08:06:02.720Z,17.33
2023-04-19T08:08:29.180Z,17.50
2023-04-19T08:10:55.625Z,17.65
2023-04-19T08:13:22.183Z,17.79
2023-04-19T08:18:18.425Z,18.01
2023-04-19T08:20:46.638Z,18.05
2023-04-19T08:23:21.537Z,18.08
2023-04-19T08:25:52.549Z,18.20
2023-04-19T08:28:19.153Z,18.25
2023-04-19T08:30:45.747Z,18.33
2023-04-19T08:33:12.409Z,18.53
2023-04-19T08:35:39.297Z,18.78
2023-04-19T08:38:05.779Z,19.00
2023-04-19T08:40:32.852Z,19.17
2023-04-19T08:42:59.728Z,19.27
2023-04-19T08:45:28.765Z,19.43
2023-04-19T08:48:01.540Z,19.74
2023-04-19T08:55:28.543Z,20.69
2023-04-19T08:57:56.905Z,20.83
2023-04-19T09:00:23.520Z,20.84
2023-04-19T09:02:51.871Z,20.94
2023-04-19T09:05:19.530Z,21.05
2023-04-19T09:07:47.026Z,21.15
2023-04-19T09:10:17.266Z,21.12
2023-04-19T09:12:45.140Z,21.10
2023-04-19T09:15:11.623Z,21.11
2023-04-19T09:17:40.177Z,21.09
2023-04-19T09:20:07.124Z,21.04
2023-04-19T09:22:33.800Z,20.98
2023-04-19T09:27:35.144Z,20.90
2023-04-19T09:30:04.286Z,20.75
2023-04-19T09:32:46.616Z,20.73
2023-04-19T09:35:13.127Z,20.71
2023-04-19T09:40:26.894Z,20.51
2023-04-19T09:48:04.459Z,20.26
2023-04-19T09:50:32.075Z,20.17
2023-04-19T09:53:00.079Z,20.09
2023-04-19T09:55:29.262Z,20.09
2023-04-19T09:57:56.929Z,20.14
2023-04-19T10:00:23.632Z,20.08
2023-04-19T10:02:56.385Z,20.02
2023-04-19T10:05:24.753Z,20.03
2023-04-19T10:07:53.283Z,19.95
2023-04-19T10:10:27.649Z,19.89
2023-04-19T10:15:50.122Z,20.52
2023-04-19T10:18:18.233Z,20.89
2023-04-19T10:20:55.269Z,21.42
2023-04-19T10:23:22.883Z,22.06
2023-04-19T10:25:49.454Z,22.73
2023-04-19T10:28:16.536Z,23.44
2023-04-19T10:30:54.404Z,24.63
2023-04-19T10:33:28.346Z,26.65
2023-04-19T10:35:59.215Z,29.13
2023-04-19T10:38:49.786Z,31.17
2023-04-19T10:41:18.520Z,32.61
2023-04-19T10:44:09.810Z,33.42
2023-04-19T10:46:38.558Z,32.51
2023-04-19T10:49:06.174Z,30.51
2023-04-19T10:51:33.757Z,29.13
2023-04-19T10:54:01.955Z,28.17
2023-04-19T10:56:34.790Z,27.27
2023-04-19T10:59:01.262Z,26.40
2023-04-19T11:01:41.082Z,25.68
2023-04-19T11:04:09.540Z,24.67
2023-04-19T11:06:38.279Z,24.00
2023-04-19T11:09:04.805Z,23.99
2023-04-19T11:11:35.063Z,24.73
2023-04-19T11:14:03.422Z,24.27
2023-04-19T11:16:44.510Z,23.69
2023-04-19T11:19:19.087Z,23.17
2023-04-19T11:21:46.810Z,22.69
2023-04-19T11:24:13.876Z,22.38
2023-04-19T11:26:42.972Z,22.09
2023-04-19T11:29:10.149Z,21.74
2023-04-19T11:31:36.706Z,21.59
2023-04-19T11:34:04.178Z,21.63
2023-04-19T11:36:33.501Z,21.59
2023-04-19T11:38:59.954Z,21.65
2023-04-19T11:41:26.457Z,21.80
2023-04-19T11:43:53.179Z,21.87
2023-04-19T11:46:19.697Z,21.87
2023-04-19T11:48:53.472Z,21.85
2023-04-19T11:51:20.885Z,21.78
2023-04-19T11:53:47.442Z,21.65
2023-04-19T11:56:13.934Z,21.61
2023-04-19T11:58:45.279Z,21.58
2023-04-19T12:01:12.553Z,21.53
2023-04-19T12:03:45.715Z,21.48
2023-04-19T12:06:17.921Z,21.41
2023-04-19T12:08:47.249Z,21.36
2023-04-19T12:11:15.170Z,21.26
2023-04-19T12:13:42.256Z,21.21
2023-04-19T12:16:08.880Z,21.27
2023-04-19T12:18:51.412Z,21.44
2023-04-19T12:21:25.390Z,21.56
2023-04-19T12:23:55.036Z,21.43
2023-04-19T12:26:21.528Z,21.18
2023-04-19T12:28:47.995Z,20.91
2023-04-19T12:31:14.529Z,20.67
2023-04-19T12:33:41.027Z,20.52
2023-04-19T12:36:07.838Z,20.42
2023-04-19T12:38:34.310Z,20.34
2023-04-19T12:41:01.198Z,20.30
2023-04-19T12:43:27.737Z,20.24
2023-04-19T12:45:54.317Z,20.18
2023-04-19T12:48:20.857Z,20.12
2023-04-19T12:50:47.356Z,20.11
2023-04-19T12:53:13.826Z,20.02
2023-04-19T12:55:40.277Z,19.87
2023-04-19T12:58:06.848Z,19.68
2023-04-19T13:00:33.329Z,19.52
2023-04-19T13:03:00.023Z,19.37
2023-04-19T13:05:26.831Z,19.21
2023-04-19T13:07:53.351Z,19.08
2023-04-19T13:10:19.899Z,18.99
2023-04-19T13:12:46.438Z,18.95
2023-04-19T13:15:12.939Z,18.90
2023-04-19T13:17:39.390Z,18.85
2023-04-19T13:20:06.778Z,18.82
2023-04-19T13:22:33.379Z,18.80
2023-04-19T13:24:59.866Z,18.78
2023-04-19T13:27:26.343Z,18.78
2023-04-19T13:29:55.213Z,18.82
2023-04-19T13:32:21.951Z,18.90
2023-04-19T13:34:48.633Z,18.99
2023-04-19T13:37:15.185Z,19.41
2023-04-19T13:39:42.960Z,19.89
2023-04-19T13:42:09.458Z,19.96
2023-04-19T13:44:35.954Z,20.09
2023-04-19T13:47:02.565Z,20.08
2023-04-19T13:49:29.122Z,20.04
2023-04-19T13:51:55.942Z,19.99
2023-04-19T13:54:22.464Z,19.99
2023-04-19T13:56:51.965Z,19.92
2023-04-19T13:59:18.922Z,19.79
2023-04-19T14:01:45.357Z,19.65
2023-04-19T14:04:12.011Z,19.56
2023-04-19T14:06:38.710Z,19.56
2023-04-19T14:09:05.207Z,19.61
2023-04-19T14:11:31.732Z,19.67
2023-04-19T14:13:58.220Z,19.60
2023-04-19T14:16:24.952Z,19.41
2023-04-19T14:18:51.538Z,19.22
2023-04-19T14:21:18.519Z,19.06
2023-04-19T14:23:45.037Z,18.95
2023-04-19T14:26:11.536Z,18.79
2023-04-19T14:28:37.995Z,18.67
2023-04-19T14:31:04.603Z,18.57
2023-04-19T14:33:31.172Z,18.45
2023-04-19T14:35:57.663Z,18.30
2023-04-19T14:38:24.149Z,18.19
2023-04-19T14:40:50.588Z,18.07
2023-04-19T14:43:17.167Z,17.95
2023-04-19T14:45:43.676Z,17.83
2023-04-19T14:48:10.304Z,17.73
2023-04-19T14:50:36.844Z,17.62
2023-04-19T14:53:03.390Z,17.48
2023-04-19T14:55:29.894Z,17.37
2023-04-19T14:57:56.385Z,17.26
2023-04-19T15:00:22.982Z,17.19
2023-04-19T15:02:49.516Z,17.14
2023-04-19T15:05:16.420Z,17.09
2023-04-19T15:07:43.113Z,17.08
2023-04-19T15:10:10.021Z,17.05
2023-04-19T15:12:36.556Z,17.01
2023-04-19T15:15:03.202Z,16.97
2023-04-19T15:17:29.705Z,16.94
2023-04-19T15:19:56.210Z,16.90
2023-04-19T15:22:22.731Z,16.84
2023-04-19T15:24:49.195Z,16.79
2023-04-19T15:27:15.735Z,16.76
2023-04-19T15:29:42.239Z,16.73
2023-04-19T15:32:08.825Z,16.68
2023-04-19T15:34:35.326Z,16.63
2023-04-19T15:37:01.828Z,16.62
2023-04-19T15:39:28.305Z,16.61
2023-04-19T15:41:54.809Z,16.59
2023-04-19T15:44:21.261Z,16.61
2023-04-19T15:46:47.764Z,16.63
2023-04-19T15:49:14.425Z,16.60
2023-04-19T15:51:41.156Z,16.57
2023-04-19T15:54:07.704Z,16.52
2023-04-19T15:56:34.178Z,16.53
2023-04-19T15:59:00.845Z,16.55
2023-04-19T16:01:27.434Z,16.54
2023-04-19T16:03:54.316Z,16.48
2023-04-19T16:06:22.135Z,16.39
2023-04-19T16:08:49.880Z,16.35
2023-04-19T16:11:16.417Z,16.32
2023-04-19T16:13:42.952Z,16.29
2023-04-19T16:16:09.429Z,16.24
2023-04-19T16:18:35.943Z,16.19
2023-04-19T16:21:03.469Z,16.13
2023-04-19T16:23:30.023Z,16.03
2023-04-19T16:25:56.904Z,15.96
2023-04-19T16:28:23.584Z,15.88
2023-04-19T16:30:50.057Z,15.80
2023-04-19T16:33:16.644Z,15.76
2023-04-19T16:35:43.175Z,15.74
2023-04-19T16:38:09.680Z,15.72
2023-04-19T16:40:36.198Z,15.68
2023-04-19T16:43:02.727Z,15.65
2023-04-19T16:45:29.276Z,15.61
2023-04-19T16:47:55.907Z,15.56
2023-04-19T16:50:22.458Z,15.52
2023-04-19T16:52:48.918Z,15.49
2023-04-19T16:55:15.512Z,15.45
2023-04-19T16:57:42.065Z,15.43
2023-04-19T17:00:09.294Z,15.41
2023-04-19T17:02:35.962Z,15.39
2023-04-19T17:05:02.588Z,15.37
2023-04-19T17:07:29.292Z,15.34
2023-04-19T17:09:55.928Z,15.29
2023-04-19T17:12:22.513Z,15.24
2023-04-19T17:14:49.039Z,15.20
2023-04-19T17:17:15.874Z,15.16
2023-04-19T17:19:42.299Z,15.10
2023-04-19T17:22:08.773Z,15.08
2023-04-19T17:24:35.264Z,15.05
2023-04-19T17:27:01.767Z,15.02
2023-04-19T17:29:28.390Z,14.98
2023-04-19T17:31:54.900Z,14.92
2023-04-19T17:34:21.439Z,14.85
2023-04-19T17:36:47.952Z,14.77
2023-04-19T17:39:14.622Z,14.71
2023-04-19T17:41:41.432Z,14.63
2023-04-19T17:44:07.963Z,14.58
2023-04-19T17:46:34.524Z,14.53
2023-04-19T17:49:01.025Z,14.47
2023-04-19T17:51:27.572Z,14.40
2023-04-19T17:53:54.119Z,14.31
2023-04-19T17:56:20.626Z,14.23
2023-04-19T17:58:47.073Z,14.15
2023-04-19T18:01:53.149Z,14.07
2023-04-19T18:04:20.120Z,13.98
2023-04-19T18:06:46.799Z,13.93
2023-04-19T18:09:13.422Z,13.90
2023-04-19T18:11:40.498Z,13.85
2023-04-19T18:14:06.982Z,13.82
2023-04-19T18:16:33.583Z,13.77
2023-04-19T18:19:00.100Z,13.72
2023-04-19T18:21:26.708Z,13.68
2023-04-19T18:23:53.347Z,13.63
2023-04-19T18:26:20.583Z,13.57
2023-04-19T18:28:47.490Z,13.51
2023-04-19T18:31:13.984Z,13.46
2023-04-19T18:33:40.491Z,13.41
2023-04-19T18:36:07.059Z,13.36
2023-04-19T18:38:33.556Z,13.30
2023-04-19T18:41:00.011Z,13.24
2023-04-19T18:43:27.992Z,13.19
2023-04-19T18:45:55.584Z,13.15
2023-04-19T18:48:23.879Z,13.11
2023-04-19T18:50:50.660Z,13.08
2023-04-19T18:53:17.128Z,13.05
2023-04-19T18:55:43.641Z,13.01
2023-04-19T18:58:10.128Z,12.94
2023-04-19T19:00:36.619Z,12.86
2023-04-19T19:03:04.022Z,12.77
2023-04-19T19:05:30.814Z,12.70
2023-04-19T19:07:57.849Z,12.64
2023-04-19T19:12:53.082Z,12.51
2023-04-19T19:15:19.602Z,12.44
2023-04-19T19:17:49.779Z,12.39
2023-04-19T19:20:20.014Z,12.32
2023-04-19T19:22:46.565Z,12.29
2023-04-19T19:25:13.137Z,12.26
2023-04-19T19:27:40.086Z,12.23
2023-04-19T19:30:07.417Z,12.20
2023-04-19T19:32:34.064Z,12.19
2023-04-19T19:35:02.978Z,12.17
2023-04-19T19:37:31.254Z,12.16
2023-04-19T19:40:02.809Z,12.15
2023-04-19T19:42:31.096Z,12.11
2023-04-19T19:44:57.547Z,12.06
2023-04-19T19:47:25.128Z,12.00
2023-04-19T19:50:34.998Z,11.94
2023-04-19T19:52:38.433Z,11.89
2023-04-19T19:55:05.714Z,11.85
2023-04-19T19:58:16.338Z,11.81
2023-04-19T20:00:37.563Z,11.74
2023-04-19T20:03:06.688Z,11.68
2023-04-19T20:05:33.765Z,11.62
2023-04-19T20:08:10.143Z,11.57
2023-04-19T20:10:38.253Z,11.52
2023-04-19T20:13:05.103Z,11.47
2023-04-19T20:15:32.128Z,11.44
2023-04-19T20:17:58.752Z,11.43
2023-04-19T20:20:25.265Z,11.43
2023-04-19T20:22:51.778Z,11.43
2023-04-19T20:25:18.263Z,11.42
2023-04-19T20:27:44.799Z,11.39
2023-04-19T20:30:11.780Z,11.32
2023-04-19T20:32:38.498Z,11.26
2023-04-19T20:35:05.446Z,11.20
2023-04-19T20:37:31.943Z,11.14
2023-04-19T20:39:58.407Z,11.07
2023-04-19T20:42:24.976Z,11.02
2023-04-19T20:44:51.470Z,10.99
2023-04-19T20:47:17.900Z,10.95
2023-04-19T20:49:44.359Z,10.93
2023-04-19T20:52:10.817Z,10.91
2023-04-19T20:54:37.365Z,10.90
2023-04-19T20:57:03.851Z,10.88
2023-04-19T20:59:31.022Z,10.85
2023-04-19T21:01:58.422Z,10.83
2023-04-19T21:04:25.103Z,10.82
2023-04-19T21:06:51.745Z,10.81
2023-04-19T21:09:18.491Z,10.83
2023-04-19T21:11:45.190Z,10.83
2023-04-19T21:14:11.706Z,10.84
2023-04-19T21:16:38.214Z,10.83
2023-04-19T21:19:04.721Z,10.82
2023-04-19T21:21:32.496Z,10.83
2023-04-19T21:23:59.180Z,10.82
2023-04-19T21:26:25.683Z,10.81
2023-04-19T21:28:52.142Z,10.77
2023-04-19T21:31:18.676Z,10.73
2023-04-19T21:33:45.141Z,10.70
2023-04-19T21:36:11.814Z,10.68
2023-04-19T21:38:38.395Z,10.67
2023-04-19T21:41:06.635Z,10.65
2023-04-19T21:43:33.161Z,10.64
2023-04-19T21:45:59.841Z,10.63
2023-04-19T21:48:26.304Z,10.63
2023-04-19T21:50:53.003Z,10.61
2023-04-19T21:53:19.450Z,10.60
2023-04-19T21:55:48.852Z,10.57
2023-04-19T21:58:15.345Z,10.54
2023-04-19T22:00:41.898Z,10.50
2023-04-19T22:03:08.909Z,10.43
2023-04-19T22:05:35.563Z,10.39
2023-04-19T22:08:02.704Z,10.38
2023-04-19T22:10:29.958Z,10.37
2023-04-19T22:12:58.878Z,10.37
2023-04-19T22:15:26.527Z,10.36
2023-04-19T22:17:53.054Z,10.36
2023-04-19T22:20:19.644Z,10.34
2023-04-19T22:22:46.104Z,10.32
2023-04-19T22:25:12.644Z,10.29
2023-04-19T22:27:39.120Z,10.27
2023-04-19T22:30:06.329Z,10.24
2023-04-19T22:32:32.926Z,10.20
2023-04-19T22:34:59.454Z,10.19
2023-04-19T22:37:25.910Z,10.16
2023-04-19T22:39:52.395Z,10.09
2023-04-19T22:42:18.854Z,10.00
2023-04-19T22:44:45.316Z,9.94
2023-04-19T22:47:11.809Z,9.90
2023-04-19T22:49:38.348Z,9.86
2023-04-19T22:52:04.834Z,9.82
2023-04-19T22:54:31.318Z,9.83
2023-04-19T22:56:57.781Z,9.84
2023-04-19T22:59:24.272Z,9.85
2023-04-19T23:01:50.950Z,9.85
2023-04-19T23:04:17.562Z,9.83
2023-04-19T23:06:44.245Z,9.81
2023-04-19T23:09:10.972Z,9.78
2023-04-19T23:11:37.423Z,9.76
2023-04-19T23:14:04.012Z,9.66
2023-04-19T23:16:30.463Z,9.56
2023-04-19T23:18:56.928Z,9.51
2023-04-19T23:21:23.392Z,9.48
2023-04-19T23:23:50.263Z,9.46
2023-04-19T23:26:16.745Z,9.46
2023-04-19T23:28:43.260Z,9.45
2023-04-19T23:31:09.786Z,9.44
2023-04-19T23:33:36.260Z,9.44
2023-04-19T23:36:02.927Z,9.44
2023-04-19T23:38:29.418Z,9.41
2023-04-19T23:40:55.882Z,9.36
2023-04-19T23:43:22.339Z,9.32
2023-04-19T23:45:48.836Z,9.31
2023-04-19T23:48:15.311Z,9.31
2023-04-19T23:50:41.765Z,9.27
2023-04-19T23:53:08.227Z,9.24
2023-04-19T23:55:34.683Z,9.23
2023-04-19T23:58:01.166Z,9.19
